createdAt,value
2016-08-23T00:00:56.199Z,0
2016-08-23T00:02:08.470Z,0
2016-08-23T00:03:20.761Z,0
2016-08-23T00:04:33.033Z,0
2016-08-23T00:05:44.575Z,0
2016-08-23T00:06:56.835Z,0
2016-08-23T00:08:08.422Z,0
2016-08-23T00:09:19.977Z,0
2016-08-23T00:10:32.241Z,0
2016-08-23T00:11:43.814Z,0
2016-08-23T00:12:56.106Z,0
2016-08-23T00:14:08.361Z,0
2016-08-23T00:15:20.613Z,0
2016-08-23T00:16:32.891Z,0
2016-08-23T00:17:45.162Z,0
2016-08-23T00:18:57.424Z,0
2016-08-23T00:20:09.717Z,0
2016-08-23T00:21:21.971Z,0
2016-08-23T00:22:34.236Z,0
2016-08-23T00:23:46.502Z,0
2016-08-23T00:24:57.358Z,0
2016-08-23T00:26:08.960Z,0
2016-08-23T00:27:21.218Z,0
2016-08-23T00:28:33.494Z,0
2016-08-23T00:29:45.052Z,0
2016-08-23T00:30:56.608Z,0
2016-08-23T00:32:08.875Z,0
2016-08-23T00:33:21.140Z,0
2016-08-23T00:34:32.003Z,0
2016-08-23T00:35:44.275Z,0
2016-08-23T00:36:56.536Z,0
2016-08-23T00:38:08.806Z,0
2016-08-23T00:39:19.664Z,0
2016-08-23T00:40:31.223Z,0
2016-08-23T00:41:42.777Z,0
2016-08-23T00:42:55.046Z,0
2016-08-23T00:44:06.618Z,0
2016-08-23T00:45:18.893Z,0
2016-08-23T00:46:30.446Z,0
2016-08-23T00:47:42.702Z,0
2016-08-23T00:48:54.962Z,0
2016-08-23T00:50:06.530Z,0
2016-08-23T00:51:18.799Z,0
2016-08-23T00:52:31.053Z,0
2016-08-23T00:53:43.315Z,0
2016-08-23T00:54:55.581Z,0
2016-08-23T00:56:07.150Z,0
2016-08-23T00:57:18.706Z,0
2016-08-23T00:58:30.968Z,0
2016-08-23T00:59:43.235Z,0
2016-08-23T01:00:55.506Z,0
2016-08-23T01:02:07.072Z,0
2016-08-23T01:03:19.334Z,0
2016-08-23T01:04:30.894Z,0
2016-08-23T01:05:43.166Z,0
2016-08-23T01:06:55.427Z,0
2016-08-23T01:08:06.293Z,0
2016-08-23T01:09:17.864Z,0
2016-08-23T01:10:30.130Z,0
2016-08-23T01:11:42.396Z,0
2016-08-23T01:12:54.677Z,0
2016-08-23T01:14:06.940Z,0
2016-08-23T01:15:18.494Z,0
2016-08-23T01:16:30.773Z,0
2016-08-23T01:17:43.031Z,0
2016-08-23T01:18:55.292Z,0
2016-08-23T01:20:07.549Z,0
2016-08-23T01:21:19.802Z,0
2016-08-23T01:22:32.068Z,0
2016-08-23T01:23:42.926Z,0
2016-08-23T01:24:55.201Z,0
2016-08-23T01:26:07.462Z,0
2016-08-23T01:27:19.035Z,0
2016-08-23T01:28:30.608Z,0
2016-08-23T01:29:42.155Z,0
2016-08-23T01:30:54.428Z,0
2016-08-23T01:32:06.682Z,0
2016-08-23T01:33:18.240Z,0
2016-08-23T01:34:30.506Z,0
2016-08-23T01:35:42.829Z,0
2016-08-23T01:36:55.097Z,0
2016-08-23T01:38:07.361Z,0
2016-08-23T01:39:19.613Z,0
2016-08-23T01:40:31.872Z,0
2016-08-23T01:41:44.156Z,0
2016-08-23T01:42:56.423Z,0
2016-08-23T01:44:08.690Z,0
2016-08-23T01:45:20.254Z,0
2016-08-23T01:46:31.817Z,0
2016-08-23T01:47:43.372Z,0
2016-08-23T01:48:55.636Z,0
2016-08-23T01:50:07.902Z,0
2016-08-23T01:51:19.462Z,0
2016-08-23T01:52:31.724Z,0
2016-08-23T01:53:43.980Z,0
2016-08-23T01:54:56.265Z,0
2016-08-23T01:56:07.832Z,0
2016-08-23T01:57:20.084Z,0
2016-08-23T01:58:32.338Z,0
2016-08-23T01:59:44.612Z,0
2016-08-23T02:00:56.168Z,0
2016-08-23T02:02:08.424Z,0
2016-08-23T02:03:20.678Z,0
2016-08-23T02:04:32.242Z,0
2016-08-23T02:05:43.093Z,0
2016-08-23T02:06:55.352Z,0
2016-08-23T02:08:07.610Z,0
2016-08-23T02:09:19.878Z,0
2016-08-23T02:10:30.759Z,0
2016-08-23T02:11:43.021Z,0
2016-08-23T02:12:55.273Z,0
2016-08-23T02:14:06.845Z,0
2016-08-23T02:15:19.110Z,0
2016-08-23T02:16:30.670Z,0
2016-08-23T02:17:42.934Z,0
2016-08-23T02:18:55.195Z,0
2016-08-23T02:20:07.491Z,0
2016-08-23T02:21:19.775Z,0
2016-08-23T02:22:31.328Z,0
2016-08-23T02:23:43.604Z,0
2016-08-23T02:24:55.860Z,0
2016-08-23T02:26:08.112Z,0
2016-08-23T02:27:20.372Z,0
2016-08-23T02:28:31.942Z,0
2016-08-23T02:29:44.227Z,0
2016-08-23T02:30:56.503Z,0
2016-08-23T02:32:08.760Z,0
2016-08-23T02:33:21.063Z,0
2016-08-23T02:34:33.315Z,0
2016-08-23T02:35:44.886Z,0
2016-08-23T02:36:57.178Z,0
2016-08-23T02:38:09.437Z,0
2016-08-23T02:39:20.996Z,0
2016-08-23T02:40:32.558Z,0
2016-08-23T02:41:44.831Z,0
2016-08-23T02:42:57.094Z,0
2016-08-23T02:44:08.648Z,0
2016-08-23T02:45:20.214Z,0
2016-08-23T02:46:32.473Z,0
2016-08-23T02:47:44.053Z,0
2016-08-23T02:48:56.309Z,0
2016-08-23T02:50:07.893Z,0
2016-08-23T02:51:20.145Z,0
2016-08-23T02:52:32.401Z,0
2016-08-23T02:53:43.970Z,0
2016-08-23T02:54:56.229Z,0
2016-08-23T02:56:08.491Z,0
2016-08-23T02:57:20.754Z,0
2016-08-23T02:58:32.308Z,0
2016-08-23T02:59:43.862Z,0
2016-08-23T03:00:56.123Z,0
2016-08-23T03:02:08.405Z,0
2016-08-23T03:03:19.963Z,0
2016-08-23T03:04:31.514Z,0
2016-08-23T03:05:43.080Z,0
2016-08-23T03:06:55.337Z,0
2016-08-23T03:08:07.591Z,0
2016-08-23T03:09:19.875Z,0
2016-08-23T03:10:32.144Z,0
2016-08-23T03:11:44.404Z,0
2016-08-23T03:12:55.961Z,0
2016-08-23T03:14:07.523Z,0
2016-08-23T03:15:19.094Z,0
2016-08-23T03:16:30.637Z,0
2016-08-23T03:17:42.894Z,0
2016-08-23T03:18:55.149Z,0
2016-08-23T03:20:06.039Z,0
2016-08-23T03:21:18.318Z,0
2016-08-23T03:22:30.580Z,0
2016-08-23T03:23:42.842Z,0
2016-08-23T03:24:54.385Z,0
2016-08-23T03:26:05.941Z,0
2016-08-23T03:27:18.243Z,0
2016-08-23T03:28:30.495Z,0
2016-08-23T03:29:42.765Z,0
2016-08-23T03:30:55.018Z,0
2016-08-23T03:32:06.564Z,0
2016-08-23T03:33:18.121Z,0
2016-08-23T03:34:30.388Z,0
2016-08-23T03:35:42.702Z,0
2016-08-23T03:36:54.966Z,0
2016-08-23T03:38:07.219Z,0
2016-08-23T03:39:19.485Z,0
2016-08-23T03:40:31.041Z,0
2016-08-23T03:41:42.601Z,0
2016-08-23T03:42:54.861Z,0
2016-08-23T03:44:07.121Z,0
2016-08-23T03:45:19.400Z,0
2016-08-23T03:46:31.671Z,0
2016-08-23T03:47:43.220Z,0
2016-08-23T03:48:55.484Z,0
2016-08-23T03:50:07.736Z,0
2016-08-23T03:51:19.995Z,0
2016-08-23T03:52:32.261Z,0
2016-08-23T03:53:42.411Z,0
2016-08-23T03:54:54.685Z,0
2016-08-23T03:56:06.242Z,0
2016-08-23T03:57:18.515Z,5
2016-08-23T03:58:30.774Z,5
2016-08-23T03:59:42.337Z,5
2016-08-23T04:00:54.602Z,5
2016-08-23T04:02:05.454Z,5
2016-08-23T04:03:16.308Z,5
2016-08-23T04:04:28.581Z,10
2016-08-23T04:05:40.856Z,10
2016-08-23T04:06:53.115Z,10
2016-08-23T04:08:05.383Z,10
2016-08-23T04:09:17.653Z,10
2016-08-23T04:10:28.495Z,15
2016-08-23T04:11:40.768Z,15
2016-08-23T04:12:52.333Z,15
2016-08-23T04:14:04.602Z,15
2016-08-23T04:15:16.865Z,20
2016-08-23T04:16:29.134Z,20
2016-08-23T04:17:41.388Z,20
2016-08-23T04:18:53.633Z,20
2016-08-23T04:20:04.495Z,25
2016-08-23T04:21:16.748Z,40
2016-08-23T04:22:29.013Z,60
2016-08-23T04:23:40.564Z,60
2016-08-23T04:24:52.842Z,35
2016-08-23T04:26:04.403Z,35
2016-08-23T04:27:15.261Z,35
2016-08-23T04:28:27.512Z,35
2016-08-23T04:29:39.061Z,35
2016-08-23T04:30:51.332Z,40
2016-08-23T04:32:03.593Z,95
2016-08-23T04:33:15.869Z,135
2016-08-23T04:34:28.120Z,170
2016-08-23T04:35:40.378Z,185
2016-08-23T04:36:52.690Z,180
2016-08-23T04:38:04.255Z,180
2016-08-23T04:39:15.822Z,215
2016-08-23T04:40:27.387Z,220
2016-08-23T04:41:39.637Z,235
2016-08-23T04:42:51.193Z,250
2016-08-23T04:44:03.473Z,245
2016-08-23T04:45:15.033Z,245
2016-08-23T04:46:26.589Z,250
2016-08-23T04:47:38.851Z,250
2016-08-23T04:48:51.101Z,250
2016-08-23T04:50:02.651Z,260
2016-08-23T04:51:14.915Z,265
2016-08-23T04:52:27.177Z,265
2016-08-23T04:53:38.750Z,270
2016-08-23T04:54:51.007Z,280
2016-08-23T04:56:03.267Z,275
2016-08-23T04:57:15.539Z,270
2016-08-23T04:58:27.806Z,270
2016-08-23T04:59:39.372Z,270
2016-08-23T05:00:51.633Z,270
2016-08-23T05:02:03.907Z,265
2016-08-23T05:03:16.158Z,270
2016-08-23T05:04:28.419Z,265
2016-08-23T05:05:40.677Z,265
2016-08-23T05:06:52.939Z,275
2016-08-23T05:08:04.508Z,275
2016-08-23T05:09:16.781Z,285
2016-08-23T05:10:29.039Z,280
2016-08-23T05:11:40.605Z,280
2016-08-23T05:12:52.871Z,285
2016-08-23T05:14:05.135Z,285
2016-08-23T05:15:17.400Z,295
2016-08-23T05:16:29.678Z,290
2016-08-23T05:17:41.939Z,300
2016-08-23T05:18:54.215Z,305
2016-08-23T05:20:06.478Z,310
2016-08-23T05:21:18.744Z,315
2016-08-23T05:22:30.292Z,315
2016-08-23T05:23:42.569Z,315
2016-08-23T05:24:54.825Z,320
2016-08-23T05:26:07.093Z,325
2016-08-23T05:27:18.653Z,330
2016-08-23T05:28:30.935Z,330
2016-08-23T05:29:43.233Z,330
2016-08-23T05:30:55.510Z,335
2016-08-23T05:32:07.768Z,325
2016-08-23T05:33:20.032Z,320
2016-08-23T05:34:32.313Z,310
2016-08-23T05:35:44.590Z,305
2016-08-23T05:36:56.899Z,300
2016-08-23T05:38:09.184Z,305
2016-08-23T05:39:21.466Z,290
2016-08-23T05:40:33.743Z,280
2016-08-23T05:41:44.615Z,280
2016-08-23T05:42:56.171Z,245
2016-08-23T05:44:07.750Z,150
2016-08-23T05:45:20.015Z,115
2016-08-23T05:46:31.578Z,115
2016-08-23T05:47:43.147Z,130
2016-08-23T05:48:54.711Z,215
2016-08-23T05:50:06.288Z,265
2016-08-23T05:51:18.563Z,180
2016-08-23T05:52:30.123Z,115
2016-08-23T05:53:42.392Z,115
2016-08-23T05:54:53.949Z,115
2016-08-23T05:56:05.507Z,120
2016-08-23T05:57:17.764Z,115
2016-08-23T05:58:30.040Z,145
2016-08-23T05:59:42.293Z,205
2016-08-23T06:00:54.558Z,245
2016-08-23T06:02:06.823Z,225
2016-08-23T06:03:18.377Z,175
2016-08-23T06:04:29.945Z,130
2016-08-23T06:05:42.211Z,130
2016-08-23T06:06:53.052Z,125
2016-08-23T06:08:05.324Z,155
2016-08-23T06:09:17.600Z,200
2016-08-23T06:10:29.864Z,220
2016-08-23T06:11:41.424Z,200
2016-08-23T06:12:52.990Z,155
2016-08-23T06:14:05.247Z,130
2016-08-23T06:15:16.814Z,130
2016-08-23T06:16:29.070Z,130
2016-08-23T06:17:40.643Z,125
2016-08-23T06:18:52.205Z,125
2016-08-23T06:20:03.770Z,125
2016-08-23T06:21:16.059Z,125
2016-08-23T06:22:27.610Z,125
2016-08-23T06:23:39.180Z,125
2016-08-23T06:24:51.458Z,125
2016-08-23T06:26:03.043Z,130
2016-08-23T06:27:15.318Z,130
2016-08-23T06:28:26.895Z,130
2016-08-23T06:29:38.455Z,130
2016-08-23T06:30:49.297Z,130
2016-08-23T06:32:01.555Z,130
2016-08-23T06:33:13.119Z,130
2016-08-23T06:34:24.667Z,130
2016-08-23T06:35:36.218Z,130
2016-08-23T06:36:48.490Z,130
2016-08-23T06:38:00.748Z,130
2016-08-23T06:39:13.028Z,130
2016-08-23T06:40:25.306Z,130
2016-08-23T06:41:36.862Z,135
2016-08-23T06:42:49.133Z,135
2016-08-23T06:43:59.971Z,135
2016-08-23T06:45:12.252Z,135
2016-08-23T06:46:23.812Z,135
2016-08-23T06:47:36.092Z,135
2016-08-23T06:48:48.358Z,135
2016-08-23T06:50:00.620Z,135
2016-08-23T06:51:12.180Z,135
2016-08-23T06:52:24.447Z,135
2016-08-23T06:53:36.715Z,140
2016-08-23T06:54:48.278Z,140
2016-08-23T06:55:59.859Z,140
2016-08-23T06:57:12.124Z,140
2016-08-23T06:58:23.699Z,140
2016-08-23T06:59:35.968Z,140
2016-08-23T07:00:48.254Z,140
2016-08-23T07:01:59.821Z,145
2016-08-23T07:03:12.089Z,145
2016-08-23T07:04:24.395Z,145
2016-08-23T07:05:36.683Z,145
2016-08-23T07:06:48.949Z,145
2016-08-23T07:08:01.226Z,150
2016-08-23T07:09:13.497Z,150
2016-08-23T07:10:25.066Z,150
2016-08-23T07:11:37.333Z,150
2016-08-23T07:12:49.595Z,150
2016-08-23T07:14:01.840Z,150
2016-08-23T07:15:13.420Z,150
2016-08-23T07:16:25.723Z,150
2016-08-23T07:17:37.290Z,150
2016-08-23T07:18:48.857Z,160
2016-08-23T07:20:00.419Z,155
2016-08-23T07:21:11.274Z,155
2016-08-23T07:22:22.857Z,155
2016-08-23T07:23:33.723Z,155
2016-08-23T07:24:45.302Z,155
2016-08-23T07:25:57.572Z,155
2016-08-23T07:27:09.844Z,155
2016-08-23T07:28:19.994Z,155
2016-08-23T07:29:32.313Z,155
2016-08-23T07:30:44.587Z,160
2016-08-23T07:31:56.881Z,160
2016-08-23T07:33:09.148Z,160
2016-08-23T07:34:21.425Z,160
2016-08-23T07:35:33.707Z,165
2016-08-23T07:36:45.265Z,160
2016-08-23T07:37:56.837Z,160
2016-08-23T07:39:08.412Z,160
2016-08-23T07:40:20.680Z,165
2016-08-23T07:41:32.942Z,165
2016-08-23T07:42:43.089Z,165
2016-08-23T07:43:55.349Z,165
2016-08-23T07:45:07.615Z,165
2016-08-23T07:46:19.203Z,165
2016-08-23T07:47:31.480Z,165
2016-08-23T07:48:43.051Z,165
2016-08-23T07:49:55.324Z,165
2016-08-23T07:51:07.586Z,165
2016-08-23T07:52:19.856Z,165
2016-08-23T07:53:30.724Z,165
2016-08-23T07:54:42.290Z,170
2016-08-23T07:55:54.574Z,175
2016-08-23T07:57:06.833Z,170
2016-08-23T07:58:19.111Z,170
2016-08-23T07:59:29.980Z,170
2016-08-23T08:00:41.798Z,170
2016-08-23T08:01:53.355Z,170
2016-08-23T08:03:05.617Z,170
2016-08-23T08:04:17.223Z,170
2016-08-23T08:05:29.478Z,175
2016-08-23T08:06:41.750Z,175
2016-08-23T08:07:54.015Z,175
2016-08-23T08:09:06.286Z,175
2016-08-23T08:10:18.640Z,175
2016-08-23T08:11:30.220Z,175
2016-08-23T08:12:41.086Z,175
2016-08-23T08:13:53.378Z,175
2016-08-23T08:15:04.953Z,180
2016-08-23T08:16:17.236Z,180
2016-08-23T08:17:29.532Z,180
2016-08-23T08:18:41.801Z,180
2016-08-23T08:19:54.069Z,180
2016-08-23T08:21:05.689Z,180
2016-08-23T08:22:18.001Z,180
2016-08-23T08:23:30.297Z,180
2016-08-23T08:24:42.597Z,190
2016-08-23T08:25:54.862Z,185
2016-08-23T08:27:06.438Z,185
2016-08-23T08:28:18.015Z,185
2016-08-23T08:29:30.277Z,185
2016-08-23T08:30:41.858Z,185
2016-08-23T08:31:54.141Z,185
2016-08-23T08:33:05.703Z,190
2016-08-23T08:34:17.974Z,190
2016-08-23T08:35:30.247Z,190
2016-08-23T08:36:42.518Z,190
2016-08-23T08:37:54.094Z,190
2016-08-23T08:39:06.368Z,190
2016-08-23T08:40:17.961Z,190
2016-08-23T08:41:30.226Z,190
2016-08-23T08:42:41.817Z,190
2016-08-23T08:43:54.094Z,190
2016-08-23T08:45:05.655Z,190
2016-08-23T08:46:17.912Z,190
2016-08-23T08:47:29.494Z,195
2016-08-23T08:48:39.641Z,195
2016-08-23T08:49:51.909Z,195
2016-08-23T08:51:03.480Z,195
2016-08-23T08:52:15.047Z,195
2016-08-23T08:53:26.603Z,195
2016-08-23T08:54:38.860Z,195
2016-08-23T08:55:51.128Z,195
2016-08-23T08:57:03.389Z,195
2016-08-23T08:58:15.654Z,195
2016-08-23T08:59:27.218Z,195
2016-08-23T09:00:38.773Z,195
2016-08-23T09:01:51.041Z,200
2016-08-23T09:03:02.607Z,200
2016-08-23T09:04:14.880Z,200
2016-08-23T09:05:27.157Z,200
2016-08-23T09:06:39.468Z,200
2016-08-23T09:07:51.734Z,200
2016-08-23T09:09:03.316Z,200
2016-08-23T09:10:15.592Z,210
2016-08-23T09:11:27.866Z,205
2016-08-23T09:12:40.135Z,205
2016-08-23T09:13:52.419Z,210
2016-08-23T09:15:03.974Z,205
2016-08-23T09:16:15.542Z,205
2016-08-23T09:17:27.798Z,210
2016-08-23T09:18:40.096Z,210
2016-08-23T09:19:52.366Z,210
2016-08-23T09:21:04.638Z,210
2016-08-23T09:22:16.210Z,210
2016-08-23T09:23:28.468Z,210
2016-08-23T09:24:39.334Z,210
2016-08-23T09:25:51.601Z,210
2016-08-23T09:27:03.872Z,215
2016-08-23T09:28:16.134Z,215
2016-08-23T09:29:28.401Z,210
2016-08-23T09:30:40.670Z,210
2016-08-23T09:31:52.956Z,215
2016-08-23T09:33:05.245Z,215
2016-08-23T09:34:16.818Z,215
2016-08-23T09:35:29.090Z,215
2016-08-23T09:36:40.662Z,215
2016-08-23T09:37:52.993Z,215
2016-08-23T09:39:05.276Z,215
2016-08-23T09:40:17.762Z,215
2016-08-23T09:41:30.095Z,215
2016-08-23T09:42:42.361Z,215
2016-08-23T09:43:53.935Z,215
2016-08-23T09:45:06.231Z,220
2016-08-23T09:46:17.795Z,220
2016-08-23T09:47:30.097Z,220
2016-08-23T09:48:42.372Z,220
2016-08-23T09:49:54.656Z,220
2016-08-23T09:51:06.923Z,225
2016-08-23T09:52:19.197Z,225
2016-08-23T09:53:31.476Z,220
2016-08-23T09:54:43.757Z,220
2016-08-23T09:55:55.326Z,220
2016-08-23T09:57:07.593Z,225
2016-08-23T09:58:19.875Z,225
2016-08-23T09:59:32.426Z,220
2016-08-23T10:00:44.702Z,220
2016-08-23T10:01:56.999Z,220
2016-08-23T10:03:08.586Z,220
2016-08-23T10:04:20.849Z,225
2016-08-23T10:05:33.131Z,225
2016-08-23T10:06:45.406Z,220
2016-08-23T10:07:57.702Z,215
2016-08-23T10:09:09.969Z,220
2016-08-23T10:10:22.248Z,230
2016-08-23T10:11:34.521Z,235
2016-08-23T10:12:46.801Z,230
2016-08-23T10:13:58.400Z,230
2016-08-23T10:15:10.690Z,240
2016-08-23T10:16:22.989Z,240
2016-08-23T10:17:35.279Z,235
2016-08-23T10:18:47.566Z,230
2016-08-23T10:19:59.838Z,235
2016-08-23T10:21:12.103Z,235
2016-08-23T10:22:23.675Z,235
2016-08-23T10:23:35.963Z,240
2016-08-23T10:24:48.249Z,245
2016-08-23T10:26:00.541Z,255
2016-08-23T10:27:12.819Z,255
2016-08-23T10:28:24.388Z,265
2016-08-23T10:29:35.964Z,270
2016-08-23T10:30:48.238Z,260
2016-08-23T10:32:00.505Z,255
2016-08-23T10:33:12.078Z,255
2016-08-23T10:34:24.361Z,260
2016-08-23T10:35:35.931Z,255
2016-08-23T10:36:48.193Z,220
2016-08-23T10:38:00.520Z,185
2016-08-23T10:39:11.396Z,145
2016-08-23T10:40:22.966Z,155
2016-08-23T10:41:35.234Z,170
2016-08-23T10:42:47.528Z,195
2016-08-23T10:43:59.805Z,260
2016-08-23T10:45:12.070Z,275
2016-08-23T10:46:23.630Z,235
2016-08-23T10:47:35.192Z,260
2016-08-23T10:48:46.766Z,170
2016-08-23T10:49:59.032Z,260
2016-08-23T10:51:11.300Z,255
2016-08-23T10:52:23.590Z,265
2016-08-23T10:53:35.151Z,275
2016-08-23T10:54:47.421Z,270
2016-08-23T10:55:59.707Z,180
2016-08-23T10:57:11.291Z,255
2016-08-23T10:58:23.564Z,160
2016-08-23T10:59:35.143Z,145
2016-08-23T11:00:47.420Z,210
2016-08-23T11:01:59.679Z,155
2016-08-23T11:03:11.977Z,295
2016-08-23T11:04:24.272Z,290
2016-08-23T11:05:36.545Z,280
2016-08-23T11:06:49.006Z,160
2016-08-23T11:08:01.274Z,160
2016-08-23T11:09:12.850Z,210
2016-08-23T11:10:25.119Z,275
2016-08-23T11:11:36.680Z,275
2016-08-23T11:12:48.955Z,155
2016-08-23T11:14:01.223Z,280
2016-08-23T11:15:13.544Z,290
2016-08-23T11:16:25.811Z,290
2016-08-23T11:17:38.101Z,295
2016-08-23T11:18:50.380Z,290
2016-08-23T11:20:01.957Z,290
2016-08-23T11:21:12.833Z,295
2016-08-23T11:22:25.112Z,305
2016-08-23T11:23:37.375Z,305
2016-08-23T11:24:49.643Z,315
2016-08-23T11:26:01.974Z,195
2016-08-23T11:27:14.261Z,295
2016-08-23T11:28:26.529Z,170
2016-08-23T11:29:38.810Z,310
2016-08-23T11:30:50.372Z,305
2016-08-23T11:32:02.649Z,170
2016-08-23T11:33:14.253Z,150
2016-08-23T11:34:25.813Z,195
2016-08-23T11:35:37.391Z,160
2016-08-23T11:36:49.661Z,265
2016-08-23T11:38:02.008Z,290
2016-08-23T11:39:14.275Z,285
2016-08-23T11:40:26.561Z,295
2016-08-23T11:41:38.838Z,300
2016-08-23T11:42:49.735Z,185
2016-08-23T11:44:02.007Z,310
2016-08-23T11:45:14.333Z,305
2016-08-23T11:46:26.643Z,300
2016-08-23T11:47:38.918Z,290
2016-08-23T11:48:51.195Z,280
2016-08-23T11:50:02.772Z,265
2016-08-23T11:51:14.356Z,265
2016-08-23T11:52:26.626Z,265
2016-08-23T11:53:38.887Z,265
2016-08-23T11:54:51.170Z,265
2016-08-23T11:56:03.456Z,180
2016-08-23T11:57:15.746Z,190
2016-08-23T11:58:28.049Z,190
2016-08-23T11:59:40.339Z,130
2016-08-23T12:00:52.606Z,235
2016-08-23T12:02:04.870Z,130
2016-08-23T12:03:16.466Z,140
2016-08-23T12:04:28.766Z,125
2016-08-23T12:05:41.050Z,165
2016-08-23T12:06:53.322Z,260
2016-08-23T12:08:04.896Z,265
2016-08-23T12:09:17.170Z,125
2016-08-23T12:10:29.451Z,260
2016-08-23T12:11:41.737Z,260
2016-08-23T12:12:54.007Z,270
2016-08-23T12:14:06.297Z,270
2016-08-23T12:15:17.858Z,260
2016-08-23T12:16:30.125Z,265
2016-08-23T12:17:42.415Z,265
2016-08-23T12:18:53.285Z,120
2016-08-23T12:20:05.562Z,250
2016-08-23T12:21:17.857Z,260
2016-08-23T12:22:30.129Z,255
2016-08-23T12:23:41.696Z,155
2016-08-23T12:24:53.992Z,135
2016-08-23T12:26:05.576Z,250
2016-08-23T12:27:16.462Z,115
2016-08-23T12:28:26.654Z,115
2016-08-23T12:29:38.935Z,265
2016-08-23T12:30:50.503Z,190
2016-08-23T12:32:02.783Z,280
2016-08-23T12:33:15.070Z,275
2016-08-23T12:34:25.257Z,285
2016-08-23T12:35:36.827Z,285
2016-08-23T12:36:48.414Z,280
2016-08-23T12:38:00.028Z,255
2016-08-23T12:39:11.602Z,280
2016-08-23T12:40:23.195Z,165
2016-08-23T12:41:35.471Z,195
2016-08-23T12:42:47.753Z,175
2016-08-23T12:44:00.040Z,250
2016-08-23T12:45:12.305Z,200
2016-08-23T12:46:23.160Z,115
2016-08-23T12:47:34.728Z,120
2016-08-23T12:48:45.613Z,255
2016-08-23T12:49:57.886Z,240
2016-08-23T12:51:09.444Z,170
2016-08-23T12:52:21.015Z,150
2016-08-23T12:53:31.879Z,245
2016-08-23T12:54:44.158Z,240
2016-08-23T12:55:55.739Z,145
2016-08-23T12:57:07.312Z,250
2016-08-23T12:58:19.600Z,230
2016-08-23T12:59:31.861Z,250
2016-08-23T13:00:43.447Z,250
2016-08-23T13:01:55.726Z,195
2016-08-23T13:03:08.005Z,125
2016-08-23T13:04:19.590Z,230
2016-08-23T13:05:31.868Z,110
2016-08-23T13:06:43.440Z,105
2016-08-23T13:07:55.027Z,115
2016-08-23T13:09:07.304Z,245
2016-08-23T13:10:18.174Z,245
2016-08-23T13:11:30.449Z,225
2016-08-23T13:12:42.724Z,115
2016-08-23T13:13:54.995Z,210
2016-08-23T13:15:06.567Z,240
2016-08-23T13:16:16.734Z,245
2016-08-23T13:17:29.012Z,175
2016-08-23T13:18:39.903Z,120
2016-08-23T13:19:51.498Z,190
2016-08-23T13:21:02.387Z,240
2016-08-23T13:22:13.261Z,225
2016-08-23T13:23:24.136Z,240
2016-08-23T13:24:35.004Z,120
2016-08-23T13:25:45.870Z,235
2016-08-23T13:26:57.458Z,240
2016-08-23T13:28:09.742Z,235
2016-08-23T13:29:22.010Z,230
2016-08-23T13:30:34.285Z,230
2016-08-23T13:31:45.868Z,210
2016-08-23T13:32:58.180Z,230
2016-08-23T13:34:09.781Z,235
2016-08-23T13:35:22.065Z,235
2016-08-23T13:36:34.342Z,235
2016-08-23T13:37:45.202Z,245
2016-08-23T13:38:56.769Z,230
2016-08-23T13:40:09.055Z,225
2016-08-23T13:41:19.932Z,225
2016-08-23T13:42:31.527Z,225
2016-08-23T13:43:43.089Z,225
2016-08-23T13:44:54.655Z,220
2016-08-23T13:46:06.954Z,225
2016-08-23T13:47:19.237Z,225
2016-08-23T13:48:30.833Z,225
2016-08-23T13:49:42.431Z,230
2016-08-23T13:50:54.006Z,235
2016-08-23T13:52:04.183Z,230
2016-08-23T13:53:15.774Z,230
2016-08-23T13:54:28.130Z,230
2016-08-23T13:55:39.714Z,225
2016-08-23T13:56:49.881Z,225
2016-08-23T13:58:02.174Z,215
2016-08-23T13:59:14.464Z,220
2016-08-23T14:00:25.356Z,220
2016-08-23T14:01:35.522Z,160
2016-08-23T14:02:47.110Z,215
2016-08-23T14:03:58.686Z,215
2016-08-23T14:05:10.980Z,210
2016-08-23T14:06:22.549Z,165
2016-08-23T14:07:34.115Z,130
2016-08-23T14:08:46.393Z,175
2016-08-23T14:09:57.269Z,210
2016-08-23T14:11:08.853Z,215
2016-08-23T14:12:20.439Z,210
2016-08-23T14:13:32.722Z,210
2016-08-23T14:14:45.005Z,210
2016-08-23T14:15:56.593Z,210
2016-08-23T14:17:08.169Z,210
2016-08-23T14:18:19.742Z,205
2016-08-23T14:19:29.921Z,205
2016-08-23T14:20:42.251Z,205
2016-08-23T18:14:23.701Z,0
2016-08-23T18:15:35.988Z,0
2016-08-23T18:16:49.934Z,0
2016-08-23T18:18:00.849Z,0
2016-08-23T18:19:12.470Z,0
2016-08-23T18:20:24.060Z,0
2016-08-23T18:21:36.341Z,0
2016-08-23T18:22:47.902Z,0
2016-08-23T18:24:01.148Z,0
2016-08-23T18:25:13.746Z,0
2016-08-23T18:26:25.399Z,0
2016-08-23T18:27:36.991Z,0
2016-08-23T18:28:47.863Z,0
2016-08-23T18:29:59.443Z,0
2016-08-23T18:31:11.028Z,0
2016-08-23T18:32:23.327Z,0
2016-08-23T18:33:35.615Z,0
2016-08-23T18:34:47.229Z,0
2016-08-23T18:35:59.522Z,0
2016-08-23T18:37:10.404Z,0
2016-08-23T18:38:21.315Z,0
2016-08-23T18:39:33.614Z,0
2016-08-23T18:40:45.913Z,0
2016-08-23T18:41:56.076Z,0
2016-08-23T18:43:08.377Z,0
2016-08-23T18:44:19.963Z,0
2016-08-23T18:45:31.571Z,0
2016-08-23T18:46:41.775Z,0
2016-08-23T18:47:53.374Z,0
2016-08-23T18:49:05.676Z,0
2016-08-23T18:50:17.997Z,0
2016-08-23T18:51:30.319Z,0
2016-08-23T18:52:41.959Z,0
2016-08-23T18:53:54.321Z,0
2016-08-23T18:55:05.946Z,0
2016-08-23T18:56:18.299Z,0
2016-08-23T18:57:30.691Z,0
2016-08-23T18:58:42.980Z,0
2016-08-23T18:59:57.036Z,0
2016-08-23T19:01:13.812Z,0
2016-08-23T19:02:26.984Z,0
2016-08-23T19:03:37.888Z,0
2016-08-23T19:04:50.460Z,0
2016-08-23T19:06:02.926Z,0
2016-08-23T19:07:14.613Z,0
2016-08-23T19:08:26.308Z,0
2016-08-23T19:09:37.940Z,0
2016-08-23T19:10:49.553Z,0
2016-08-23T19:12:02.012Z,0
2016-08-23T19:13:14.462Z,0
2016-08-23T19:14:27.979Z,0
2016-08-23T19:15:40.779Z,0
2016-08-23T19:16:52.411Z,0
2016-08-23T19:18:06.037Z,0
2016-08-23T19:19:18.886Z,0
2016-08-23T19:20:30.633Z,0
2016-08-23T19:21:42.823Z,0
2016-08-23T19:22:54.430Z,0
2016-08-23T19:23:12.619Z,0
